Time;durP1;ratioP1;P1;durP2;ratioP2;P2;SDS_P1;SDS_P2;PMS_P1;PMS_P2;Temp;Humidity;BMP_temperature;BMP_pressure;BME280_temperature;BME280_humidity;BME280_pressure;Samples;Min_cycle;Max_cycle;Signal;HPM_P1;HPM_P2
2020/12/30 00:00:53;;;;;;;19.90;11.70;;;3.20;99.90;;;;;;5022970;28;20571;-76
2020/12/30 00:03:20;;;;;;;22.53;11.70;;;2.90;99.90;;;;;;5038130;28;20648;-76
2020/12/30 00:05:46;;;;;;;22.70;11.20;;;3.10;99.90;;;;;;5020955;28;20283;-74
2020/12/30 00:08:12;;;;;;;19.67;11.60;;;2.90;99.90;;;;;;5007764;28;20894;-76
2020/12/30 00:10:39;;;;;;;20.50;12.07;;;2.80;99.90;;;;;;5006297;28;20655;-74
2020/12/30 00:13:06;;;;;;;21.00;11.53;;;2.70;99.90;;;;;;5020972;28;20565;-76
2020/12/30 00:15:33;;;;;;;21.43;12.07;;;2.80;99.90;;;;;;5018110;28;20259;-76
2020/12/30 00:17:59;;;;;;;21.00;12.77;;;3.00;99.90;;;;;;5019513;28;20240;-71
2020/12/30 00:20:25;;;;;;;20.27;11.17;;;3.10;99.90;;;;;;5021346;28;20247;-71
2020/12/30 00:22:52;;;;;;;17.90;11.37;;;2.90;99.90;;;;;;5020013;28;20197;-71
2020/12/30 00:25:18;;;;;;;22.27;11.17;;;3.00;99.90;;;;;;5006762;28;20235;-71
2020/12/30 00:27:45;;;;;;;18.07;11.80;;;2.90;99.90;;;;;;5019406;28;20410;-71
2020/12/30 00:30:14;;;;;;;23.57;11.40;;;2.90;99.90;;;;;;5023825;28;20251;-72
2020/12/30 00:32:42;;;;;;;19.43;12.43;;;3.10;99.90;;;;;;5023452;28;20251;-72
2020/12/30 00:35:08;;;;;;;17.63;11.07;;;3.00;99.90;;;;;;5022799;28;20341;-71
2020/12/30 00:37:35;;;;;;;17.77;10.90;;;3.20;99.90;;;;;;5022645;28;20208;-71
2020/12/30 00:40:03;;;;;;;21.20;11.80;;;2.90;99.90;;;;;;5021392;28;20739;-72
2020/12/30 00:42:34;;;;;;;21.97;10.70;;;3.10;99.90;;;;;;5019968;28;20391;-72
2020/12/30 00:45:01;;;;;;;19.33;11.27;;;3.00;99.90;;;;;;5021878;28;20196;-71
2020/12/30 00:47:28;;;;;;;20.73;11.87;;;2.80;99.90;;;;;;5024560;28;20714;-70
2020/12/30 00:49:54;;;;;;;16.33;10.67;;;2.70;99.90;;;;;;5021708;28;20305;-70
2020/12/30 00:52:20;;;;;;;21.20;10.97;;;2.60;99.90;;;;;;5008688;28;20200;-70
2020/12/30 00:54:46;;;;;;;16.40;9.90;;;2.50;99.90;;;;;;5018673;28;20287;-72
2020/12/30 00:57:13;;;;;;;17.50;11.20;;;2.40;99.90;;;;;;5017842;28;20289;-72
2020/12/30 00:59:40;;;;;;;17.37;11.27;;;2.40;99.90;;;;;;5019979;28;20231;-70
2020/12/30 01:02:06;;;;;;;18.03;11.70;;;2.40;99.90;;;;;;5020073;28;20208;-70
2020/12/30 01:04:33;;;;;;;18.67;10.70;;;2.40;99.90;;;;;;5021213;28;20226;-69
2020/12/30 01:07:00;;;;;;;16.93;10.83;;;2.50;99.90;;;;;;5024094;28;20235;-69
2020/12/30 01:09:27;;;;;;;18.47;10.90;;;2.60;99.90;;;;;;5020813;28;20227;-70
2020/12/30 01:11:54;;;;;;;15.20;10.03;;;2.60;99.90;;;;;;5017252;28;20231;-69
2020/12/30 01:14:21;;;;;;;17.87;10.87;;;2.60;99.90;;;;;;5022451;28;20402;-70
2020/12/30 01:16:49;;;;;;;17.83;11.07;;;2.50;99.90;;;;;;5023278;28;20197;-69
2020/12/30 01:19:15;;;;;;;15.30;10.70;;;2.60;99.90;;;;;;5019680;28;20227;-70
2020/12/30 01:21:42;;;;;;;20.60;11.03;;;2.60;99.90;;;;;;5029841;28;20255;-69
2020/12/30 01:24:08;;;;;;;15.97;10.00;;;2.70;99.90;;;;;;5020904;28;20547;-69
2020/12/30 01:26:35;;;;;;;23.13;11.60;;;2.70;99.90;;;;;;5023198;28;20274;-70
2020/12/30 01:29:03;;;;;;;14.97;10.30;;;2.60;99.90;;;;;;5022521;28;22014;-71
2020/12/30 01:31:30;;;;;;;20.50;12.30;;;2.60;99.90;;;;;;5037479;28;20291;-70
2020/12/30 01:33:57;;;;;;;21.10;10.17;;;2.80;99.90;;;;;;5019275;28;20574;-73
2020/12/30 01:36:24;;;;;;;19.67;11.77;;;2.70;99.90;;;;;;5015954;28;20287;-69
2020/12/30 01:38:52;;;;;;;18.93;10.97;;;2.70;99.90;;;;;;5019823;28;20208;-70
2020/12/30 01:41:19;;;;;;;19.83;11.80;;;2.90;99.90;;;;;;5019884;28;20203;-70
2020/12/30 01:44:02;;;;;;;19.83;11.93;;;3.00;99.90;;;;;;5018306;28;20290;-70
2020/12/30 01:46:40;;;;;;;16.77;10.77;;;3.10;99.90;;;;;;5017773;28;20235;-70
2020/12/30 01:49:26;;;;;;;18.17;10.30;;;2.90;99.90;;;;;;5017222;28;20230;-70
2020/12/30 01:51:53;;;;;;;22.47;11.13;;;2.70;99.90;;;;;;5019294;28;20287;-70
2020/12/30 01:54:20;;;;;;;17.53;10.13;;;2.70;99.90;;;;;;5014577;28;20214;-70
2020/12/30 01:56:48;;;;;;;16.93;10.30;;;2.70;99.90;;;;;;5024781;28;20210;-70
2020/12/30 01:59:18;;;;;;;16.07;10.80;;;2.90;99.90;;;;;;5018509;28;20225;-71
2020/12/30 02:01:57;;;;;;;22.13;10.67;;;2.80;99.90;;;;;;5014752;28;20275;-71
2020/12/30 02:04:25;;;;;;;17.40;10.13;;;2.80;99.90;;;;;;5019838;28;20320;-70
2020/12/30 02:06:52;;;;;;;17.07;10.80;;;2.80;99.90;;;;;;5022544;28;20216;-71
2020/12/30 02:09:19;;;;;;;15.97;11.03;;;2.70;99.90;;;;;;5000640;28;20230;-70
2020/12/30 02:11:49;;;;;;;17.00;10.77;;;2.60;99.90;;;;;;5018891;28;20287;-70
2020/12/30 02:14:16;;;;;;;20.63;11.33;;;2.70;99.90;;;;;;5021068;28;20290;-70
2020/12/30 02:16:55;;;;;;;16.23;10.53;;;2.70;99.90;;;;;;5003354;28;20298;-70
2020/12/30 02:19:23;;;;;;;18.00;10.60;;;2.60;99.90;;;;;;5027942;28;20373;-70
2020/12/30 02:21:54;;;;;;;16.77;10.40;;;2.60;99.90;;;;;;5017912;28;20212;-70
2020/12/30 02:24:31;;;;;;;20.60;10.67;;;2.60;99.90;;;;;;5020372;28;20255;-71
2020/12/30 02:26:59;;;;;;;21.97;11.23;;;2.70;99.90;;;;;;5017067;28;20227;-70
2020/12/30 02:29:31;;;;;;;21.43;10.00;;;2.70;99.90;;;;;;5022108;28;20297;-70
2020/12/30 02:31:58;;;;;;;21.17;12.03;;;2.80;99.90;;;;;;5022639;28;20222;-69
2020/12/30 02:34:24;;;;;;;15.70;10.60;;;2.80;99.90;;;;;;5029052;28;20307;-70
2020/12/30 02:36:51;;;;;;;16.00;10.97;;;2.90;99.90;;;;;;5017973;28;20205;-70
2020/12/30 02:39:19;;;;;;;19.87;11.17;;;3.00;99.90;;;;;;5015629;28;20212;-71
2020/12/30 02:41:46;;;;;;;18.77;11.07;;;3.00;99.90;;;;;;5019462;28;20282;-70
2020/12/30 02:44:12;;;;;;;16.30;11.37;;;2.90;99.90;;;;;;5025628;28;20291;-70
2020/12/30 02:46:39;;;;;;;16.30;10.67;;;3.00;99.90;;;;;;5019928;28;20248;-71
2020/12/30 02:49:05;;;;;;;20.97;11.63;;;3.00;99.90;;;;;;5020042;28;20299;-71
2020/12/30 02:51:31;;;;;;;19.83;12.23;;;3.10;99.90;;;;;;5026566;28;20200;-70
2020/12/30 02:53:57;;;;;;;18.03;10.93;;;3.10;99.90;;;;;;5023262;28;20289;-71
2020/12/30 02:56:24;;;;;;;21.40;11.90;;;3.10;99.90;;;;;;5023647;28;20261;-69
2020/12/30 02:58:50;;;;;;;21.67;11.63;;;3.10;99.90;;;;;;5007113;28;20326;-70
2020/12/30 03:01:17;;;;;;;18.60;11.77;;;3.10;99.90;;;;;;5021479;28;20296;-70
2020/12/30 03:03:44;;;;;;;20.80;11.83;;;3.20;99.90;;;;;;5024793;28;20286;-70
2020/12/30 03:06:11;;;;;;;18.10;12.10;;;3.20;99.90;;;;;;5023244;28;20261;-71
2020/12/30 03:08:37;;;;;;;16.83;10.57;;;3.20;99.90;;;;;;5018404;28;20200;-70
2020/12/30 03:11:07;;;;;;;18.23;10.70;;;3.30;99.90;;;;;;5019965;28;20196;-69
2020/12/30 03:13:34;;;;;;;20.03;12.23;;;3.30;99.90;;;;;;5017300;28;20216;-70
2020/12/30 03:16:00;;;;;;;18.63;11.53;;;3.30;99.90;;;;;;5020492;28;20232;-70
2020/12/30 03:18:27;;;;;;;19.43;11.00;;;3.30;99.90;;;;;;5002937;28;20287;-69
2020/12/30 03:20:53;;;;;;;18.70;12.63;;;3.30;99.90;;;;;;5024059;28;20298;-71
2020/12/30 03:23:20;;;;;;;21.27;12.73;;;3.40;99.90;;;;;;5019894;28;20236;-70
2020/12/30 03:25:46;;;;;;;20.63;11.07;;;3.40;99.90;;;;;;5019421;28;20346;-71
2020/12/30 03:28:12;;;;;;;19.67;11.60;;;3.40;99.90;;;;;;5019404;28;20252;-70
2020/12/30 03:30:38;;;;;;;19.80;12.00;;;3.40;99.90;;;;;;5017496;28;20292;-70
2020/12/30 03:33:05;;;;;;;18.17;11.80;;;3.40;99.90;;;;;;5024340;28;20197;-70
2020/12/30 03:35:32;;;;;;;16.43;10.90;;;3.40;99.90;;;;;;5023822;28;20212;-70
2020/12/30 03:37:58;;;;;;;18.23;11.63;;;3.40;99.90;;;;;;5038234;28;20295;-71
2020/12/30 03:40:24;;;;;;;21.07;11.37;;;3.40;99.90;;;;;;5018893;28;20509;-70
2020/12/30 03:42:50;;;;;;;22.67;11.00;;;3.40;99.90;;;;;;5021864;28;20677;-70
2020/12/30 03:45:17;;;;;;;17.90;11.90;;;3.40;99.90;;;;;;5021414;28;20199;-70
2020/12/30 03:47:43;;;;;;;23.73;13.17;;;3.40;99.90;;;;;;5023807;28;20240;-70
2020/12/30 03:50:09;;;;;;;18.30;12.10;;;3.40;99.90;;;;;;5024213;28;20707;-70
2020/12/30 03:52:36;;;;;;;24.57;11.50;;;3.40;99.90;;;;;;5022387;28;20215;-69
2020/12/30 03:55:02;;;;;;;23.03;12.07;;;3.40;99.90;;;;;;5022953;28;20378;-70
2020/12/30 03:57:29;;;;;;;18.67;11.97;;;3.40;99.90;;;;;;5023077;28;20199;-70
2020/12/30 03:59:55;;;;;;;21.53;11.37;;;3.40;99.90;;;;;;5038058;28;20200;-70
2020/12/30 04:02:21;;;;;;;17.00;10.70;;;3.30;99.90;;;;;;5021017;28;20674;-71
2020/12/30 04:04:47;;;;;;;16.93;11.13;;;3.40;99.90;;;;;;5022901;28;20333;-69
2020/12/30 04:07:13;;;;;;;15.97;11.30;;;3.30;99.90;;;;;;5022406;28;20294;-70
2020/12/30 04:09:40;;;;;;;19.17;11.63;;;3.30;99.90;;;;;;5022074;28;20284;-70
2020/12/30 04:12:06;;;;;;;18.97;10.97;;;3.20;99.90;;;;;;5020211;28;20197;-69
2020/12/30 04:14:33;;;;;;;18.20;11.07;;;3.30;99.90;;;;;;5019351;28;20690;-71
2020/12/30 04:16:59;;;;;;;21.10;10.97;;;3.30;99.90;;;;;;5018290;28;20216;-70
2020/12/30 04:19:25;;;;;;;23.97;12.10;;;3.30;99.90;;;;;;5016980;28;20263;-70
2020/12/30 04:21:52;;;;;;;21.43;11.93;;;3.30;99.90;;;;;;5019575;28;20322;-69
2020/12/30 04:24:18;;;;;;;19.03;11.73;;;3.30;99.90;;;;;;5022219;28;20202;-69
2020/12/30 04:26:44;;;;;;;18.20;11.07;;;3.30;99.90;;;;;;5022304;28;20328;-70
2020/12/30 04:29:10;;;;;;;18.57;11.90;;;3.40;99.90;;;;;;5022891;28;20208;-69
2020/12/30 04:31:37;;;;;;;20.50;11.60;;;3.40;99.90;;;;;;5022244;28;20308;-70
2020/12/30 04:34:05;;;;;;;20.40;12.07;;;3.30;99.90;;;;;;5017473;28;20224;-70
2020/12/30 04:36:31;;;;;;;19.67;12.03;;;3.30;99.90;;;;;;5018067;28;20303;-70
2020/12/30 04:38:57;;;;;;;15.30;10.53;;;3.20;99.90;;;;;;5018953;28;20236;-70
2020/12/30 04:41:31;;;;;;;16.60;11.13;;;3.20;99.90;;;;;;5020688;28;20231;-70
2020/12/30 04:44:00;;;;;;;15.30;10.97;;;3.10;99.90;;;;;;5018217;28;20301;-70
2020/12/30 04:46:28;;;;;;;19.20;11.43;;;3.20;99.90;;;;;;5019091;28;20244;-70
2020/12/30 04:48:57;;;;;;;17.60;10.63;;;3.20;99.90;;;;;;5022838;28;20227;-70
2020/12/30 04:51:27;;;;;;;17.70;11.67;;;3.10;99.90;;;;;;5019827;28;21558;-70
2020/12/30 04:53:57;;;;;;;18.97;11.67;;;3.10;99.90;;;;;;5017846;28;20715;-71
2020/12/30 04:56:39;;;;;;;16.87;10.60;;;3.10;99.90;;;;;;5016101;28;20200;-70
2020/12/30 04:59:08;;;;;;;22.00;10.50;;;3.10;99.90;;;;;;5026376;28;20577;-70
2020/12/30 05:01:48;;;;;;;21.30;11.67;;;3.10;99.90;;;;;;5019507;28;20243;-71
2020/12/30 05:04:16;;;;;;;19.40;11.00;;;3.10;99.90;;;;;;5020114;28;20271;-70
2020/12/30 05:06:49;;;;;;;18.53;11.87;;;3.10;99.90;;;;;;5034054;28;20336;-70
2020/12/30 05:09:19;;;;;;;22.23;11.43;;;3.10;99.90;;;;;;5018367;28;20734;-71
2020/12/30 05:11:46;;;;;;;17.80;12.00;;;3.10;99.90;;;;;;5016665;28;20234;-70
2020/12/30 05:14:12;;;;;;;26.03;11.17;;;3.10;99.90;;;;;;5020281;28;20635;-70
2020/12/30 05:16:38;;;;;;;18.13;11.07;;;3.10;99.90;;;;;;5033141;28;20207;-70
2020/12/30 05:19:05;;;;;;;22.97;11.87;;;3.10;99.90;;;;;;5016948;28;20225;-70
2020/12/30 05:21:31;;;;;;;17.93;11.07;;;3.20;99.90;;;;;;5015005;28;20367;-70
2020/12/30 05:23:58;;;;;;;15.67;10.80;;;3.20;99.90;;;;;;5017852;28;20238;-70
2020/12/30 05:26:26;;;;;;;18.97;10.63;;;3.20;99.90;;;;;;5015929;28;20247;-70
2020/12/30 05:28:53;;;;;;;18.23;11.23;;;3.20;99.90;;;;;;5016318;28;20294;-70
2020/12/30 05:31:19;;;;;;;19.47;11.17;;;3.20;99.90;;;;;;5023528;28;20197;-70
2020/12/30 05:33:46;;;;;;;18.30;12.03;;;3.10;99.90;;;;;;5018533;28;20613;-70
2020/12/30 05:36:14;;;;;;;15.50;10.77;;;3.10;99.90;;;;;;5017451;28;20243;-69
2020/12/30 05:38:40;;;;;;;18.23;10.97;;;3.10;99.90;;;;;;5022623;28;20574;-70
2020/12/30 05:41:22;;;;;;;17.00;10.53;;;3.10;99.90;;;;;;5020323;28;20207;-70
2020/12/30 05:43:49;;;;;;;20.37;10.33;;;3.00;99.90;;;;;;5014157;28;20203;-70
2020/12/30 05:46:26;;;;;;;18.33;10.77;;;3.10;99.90;;;;;;5027806;28;20247;-69
2020/12/30 05:48:53;;;;;;;14.77;9.33;;;3.10;99.90;;;;;;5017839;28;20200;-69
2020/12/30 05:51:29;;;;;;;18.63;10.20;;;3.10;99.90;;;;;;5019093;28;20238;-70
2020/12/30 05:54:11;;;;;;;21.00;10.90;;;3.20;99.90;;;;;;5020206;28;20268;-70
2020/12/30 05:56:39;;;;;;;18.77;10.27;;;3.20;99.90;;;;;;5034069;28;20649;-70
2020/12/30 05:59:06;;;;;;;18.23;10.40;;;3.10;99.90;;;;;;5020148;28;20274;-69
2020/12/30 06:01:36;;;;;;;18.57;10.33;;;3.10;99.90;;;;;;5018374;28;20217;-71
2020/12/30 06:04:35;;;;;;;16.87;9.73;;;3.00;99.90;;;;;;5015909;28;20658;-71
2020/12/30 06:07:03;;;;;;;14.87;10.07;;;3.00;99.90;;;;;;5013929;28;20333;-70
2020/12/30 06:09:37;;;;;;;16.67;10.83;;;2.90;99.90;;;;;;5030654;28;20201;-72
2020/12/30 06:12:06;;;;;;;15.67;10.27;;;3.00;99.90;;;;;;5016655;28;20336;-69
2020/12/30 06:14:33;;;;;;;16.83;10.27;;;3.00;99.90;;;;;;5018736;28;20402;-70
2020/12/30 06:17:01;;;;;;;13.63;9.13;;;3.00;99.90;;;;;;5016612;28;20277;-71
2020/12/30 06:19:28;;;;;;;18.63;10.73;;;3.00;99.90;;;;;;5019040;28;20234;-69
2020/12/30 06:21:56;;;;;;;16.00;10.27;;;2.90;99.90;;;;;;5016587;28;20325;-69
2020/12/30 06:24:23;;;;;;;16.63;10.47;;;3.00;99.90;;;;;;5015906;28;20577;-70
2020/12/30 06:26:50;;;;;;;16.57;10.93;;;3.00;99.90;;;;;;5014433;28;20269;-72
2020/12/30 06:29:17;;;;;;;14.70;9.07;;;3.10;99.90;;;;;;5016341;28;20232;-70
2020/12/30 06:31:48;;;;;;;15.37;9.87;;;3.10;99.90;;;;;;5003176;28;20220;-70
2020/12/30 06:34:16;;;;;;;16.77;10.23;;;3.10;99.90;;;;;;5020259;28;20250;-69
2020/12/30 06:36:44;;;;;;;19.83;10.83;;;3.10;99.90;;;;;;5018755;28;20208;-70
2020/12/30 06:39:24;;;;;;;18.80;10.20;;;3.20;99.90;;;;;;5021908;28;20236;-69
2020/12/30 06:41:57;;;;;;;17.37;9.90;;;3.20;99.90;;;;;;5018193;28;20281;-69
2020/12/30 06:44:43;;;;;;;18.00;10.40;;;3.20;99.90;;;;;;5015056;28;20639;-69
2020/12/30 06:47:11;;;;;;;17.83;9.73;;;3.20;99.90;;;;;;5019966;28;20560;-69
2020/12/30 06:49:38;;;;;;;17.57;10.50;;;3.10;99.90;;;;;;5018024;28;20584;-70
2020/12/30 06:52:25;;;;;;;19.97;9.83;;;3.10;99.90;;;;;;5019487;28;20254;-70
2020/12/30 06:54:51;;;;;;;18.47;10.43;;;3.10;99.90;;;;;;5035546;28;20235;-70
2020/12/30 06:57:51;;;;;;;17.47;9.53;;;3.10;99.90;;;;;;5016106;28;20220;-70
2020/12/30 07:00:31;;;;;;;14.00;9.87;;;3.20;99.90;;;;;;5004516;28;20227;-72
2020/12/30 07:03:14;;;;;;;16.97;10.13;;;3.20;99.90;;;;;;5016073;28;20200;-72
2020/12/30 07:05:41;;;;;;;17.70;9.87;;;3.20;99.90;;;;;;5032987;28;20232;-70
2020/12/30 07:08:08;;;;;;;14.77;9.47;;;3.20;99.90;;;;;;5017152;28;20440;-72
2020/12/30 07:10:45;;;;;;;18.70;10.87;;;3.30;99.90;;;;;;5020613;28;21144;-69
2020/12/30 07:13:40;;;;;;;18.40;10.13;;;3.30;99.90;;;;;;5016104;28;20309;-70
2020/12/30 07:16:19;;;;;;;17.00;10.27;;;3.30;99.90;;;;;;5020134;28;20197;-69
2020/12/30 07:18:50;;;;;;;17.23;9.73;;;3.30;99.90;;;;;;5021171;28;20599;-72
2020/12/30 07:21:17;;;;;;;13.57;9.70;;;3.30;99.90;;;;;;5005218;28;20237;-70
2020/12/30 07:23:46;;;;;;;19.70;11.30;;;3.40;99.90;;;;;;5014482;28;20678;-70
2020/12/30 07:26:21;;;;;;;17.97;10.50;;;3.40;99.90;;;;;;5000750;28;20270;-70
2020/12/30 07:28:48;;;;;;;19.57;10.63;;;3.40;99.90;;;;;;5020303;28;20586;-71
2020/12/30 07:31:17;;;;;;;16.17;9.40;;;3.40;99.90;;;;;;5021569;28;20196;-70
2020/12/30 07:33:44;;;;;;;22.53;11.07;;;3.30;99.90;;;;;;5024995;28;20255;-70
2020/12/30 07:36:10;;;;;;;16.70;10.23;;;3.20;99.90;;;;;;5023134;28;20713;-75
2020/12/30 07:38:37;;;;;;;18.00;10.60;;;3.30;99.90;;;;;;5023933;28;20251;-77
2020/12/30 07:41:08;;;;;;;19.00;10.70;;;3.30;99.90;;;;;;5024668;28;20196;-76
2020/12/30 07:43:48;;;;;;;18.30;11.17;;;3.30;99.90;;;;;;5012542;28;20602;-77
2020/12/30 07:46:23;;;;;;;21.27;10.97;;;3.30;99.90;;;;;;5006767;28;20670;-79
2020/12/30 07:48:50;;;;;;;13.67;8.90;;;3.40;99.90;;;;;;5023322;28;20228;-76
2020/12/30 07:51:16;;;;;;;16.10;10.50;;;3.30;99.90;;;;;;5019809;28;20195;-73
2020/12/30 07:53:51;;;;;;;27.20;11.70;;;3.30;99.90;;;;;;5024376;28;20265;-74
2020/12/30 07:56:25;;;;;;;17.23;10.50;;;3.40;99.90;;;;;;5021714;28;20228;-75
2020/12/30 07:58:51;;;;;;;14.93;10.30;;;3.40;99.90;;;;;;5022231;28;20253;-75
2020/12/30 08:01:21;;;;;;;17.73;10.87;;;3.40;99.90;;;;;;5024105;28;20264;-75
2020/12/30 08:03:47;;;;;;;24.63;11.23;;;3.40;99.90;;;;;;5021940;28;20259;-74
2020/12/30 08:06:14;;;;;;;18.87;10.87;;;3.30;99.90;;;;;;5010157;28;20223;-74
2020/12/30 08:08:44;;;;;;;16.43;10.33;;;3.40;99.90;;;;;;5021266;28;21341;-76
2020/12/30 08:11:18;;;;;;;18.83;10.10;;;3.30;99.90;;;;;;5021445;28;20195;-75
2020/12/30 08:13:45;;;;;;;22.30;11.50;;;3.30;99.90;;;;;;5020418;28;20655;-76
2020/12/30 08:16:12;;;;;;;16.40;11.00;;;3.30;99.90;;;;;;5017090;28;20236;-74
2020/12/30 08:18:51;;;;;;;20.30;11.20;;;3.40;99.90;;;;;;5019165;28;20281;-76
2020/12/30 08:21:22;;;;;;;17.47;11.73;;;3.40;99.90;;;;;;5020809;28;20207;-75
2020/12/30 08:24:04;;;;;;;19.03;11.00;;;3.40;99.90;;;;;;5025202;28;20286;-75
2020/12/30 08:26:34;;;;;;;18.40;10.20;;;3.50;99.90;;;;;;5024868;28;20278;-75
2020/12/30 08:29:01;;;;;;;14.80;9.00;;;3.50;99.90;;;;;;5038169;28;20226;-75
2020/12/30 08:31:49;;;;;;;17.20;10.37;;;3.60;99.90;;;;;;5008854;28;20247;-74
2020/12/30 08:34:22;;;;;;;17.93;10.27;;;3.60;99.90;;;;;;5023001;28;21037;-74
2020/12/30 08:36:59;;;;;;;14.93;10.30;;;3.50;99.90;;;;;;5016049;28;20205;-74
2020/12/30 08:39:26;;;;;;;16.73;10.20;;;3.50;99.90;;;;;;5020566;28;20227;-75
2020/12/30 08:41:57;;;;;;;16.47;10.23;;;3.50;99.90;;;;;;5033643;28;20247;-75
2020/12/30 08:44:25;;;;;;;15.33;9.80;;;3.60;99.90;;;;;;5018171;28;20239;-75
2020/12/30 08:46:56;;;;;;;18.20;9.77;;;3.50;99.90;;;;;;5023893;28;20573;-74
2020/12/30 08:49:23;;;;;;;20.80;9.47;;;3.50;99.90;;;;;;5026269;28;20218;-75
2020/12/30 08:51:50;;;;;;;15.33;9.30;;;3.50;99.90;;;;;;5010222;28;21082;-75
2020/12/30 08:54:19;;;;;;;14.10;10.17;;;3.50;99.90;;;;;;5006809;28;20264;-75
2020/12/30 08:56:46;;;;;;;17.67;10.10;;;3.60;99.90;;;;;;4989737;28;20563;-76
2020/12/30 08:59:22;;;;;;;15.77;9.07;;;3.50;99.90;;;;;;5025161;28;20248;-75
2020/12/30 09:01:49;;;;;;;22.07;10.23;;;3.50;99.90;;;;;;5037948;28;20261;-75
2020/12/30 09:04:15;;;;;;;17.90;10.43;;;3.50;99.90;;;;;;5020527;28;20231;-75
2020/12/30 09:06:49;;;;;;;19.97;10.50;;;3.60;99.90;;;;;;5017690;28;20434;-75
2020/12/30 09:09:19;;;;;;;15.83;10.67;;;3.60;99.90;;;;;;5020530;28;20204;-75
2020/12/30 09:11:47;;;;;;;15.60;9.17;;;3.70;99.90;;;;;;5017753;28;20322;-76
2020/12/30 09:14:13;;;;;;;16.93;9.67;;;3.60;99.90;;;;;;5022675;28;20213;-76
2020/12/30 09:16:53;;;;;;;17.70;10.80;;;3.70;99.90;;;;;;5020732;28;20270;-75
2020/12/30 09:19:20;;;;;;;15.20;9.77;;;3.80;99.90;;;;;;5020197;28;20226;-74
2020/12/30 09:21:46;;;;;;;16.90;9.40;;;3.70;99.90;;;;;;5036689;28;20695;-75
2020/12/30 09:24:13;;;;;;;18.53;9.57;;;3.80;99.90;;;;;;5032818;28;20261;-75
2020/12/30 09:26:40;;;;;;;19.30;10.80;;;3.90;99.90;;;;;;5023038;28;20297;-75
2020/12/30 09:29:20;;;;;;;16.07;9.77;;;3.90;99.90;;;;;;5021556;28;20221;-75
2020/12/30 09:31:56;;;;;;;17.37;9.03;;;4.00;99.90;;;;;;5016494;28;20197;-75
2020/12/30 09:34:30;;;;;;;17.00;10.10;;;4.00;99.90;;;;;;5026368;28;20287;-78
2020/12/30 09:36:58;;;;;;;17.73;10.13;;;3.90;99.90;;;;;;5005336;28;20322;-76
2020/12/30 09:39:27;;;;;;;18.97;10.20;;;3.90;99.90;;;;;;5020368;28;20200;-77
2020/12/30 09:42:02;;;;;;;17.83;10.63;;;3.90;99.90;;;;;;5021139;28;20239;-76
2020/12/30 09:44:29;;;;;;;19.10;11.33;;;3.90;99.90;;;;;;5023844;28;20564;-76
2020/12/30 09:46:56;;;;;;;20.77;10.27;;;3.90;99.90;;;;;;5018093;28;20306;-77
2020/12/30 09:49:23;;;;;;;19.70;11.37;;;3.90;99.90;;;;;;5023240;28;20560;-74
2020/12/30 09:51:55;;;;;;;15.43;10.13;;;4.00;99.90;;;;;;5018378;28;20906;-76
2020/12/30 09:54:22;;;;;;;15.70;10.67;;;4.00;99.90;;;;;;5022651;28;20235;-76
2020/12/30 09:56:50;;;;;;;16.07;9.77;;;4.00;99.90;;;;;;5006124;28;20520;-78
2020/12/30 09:59:20;;;;;;;16.23;10.03;;;4.20;99.90;;;;;;5027931;28;20630;-74
2020/12/30 10:01:49;;;;;;;16.53;10.40;;;4.20;99.90;;;;;;5002094;28;20334;-77
2020/12/30 10:04:16;;;;;;;17.77;10.27;;;4.20;99.90;;;;;;5013685;28;21018;-76
2020/12/30 10:06:48;;;;;;;17.57;9.57;;;4.20;99.90;;;;;;5026323;28;20253;-78
2020/12/30 10:09:15;;;;;;;19.10;11.50;;;4.20;99.90;;;;;;5015959;28;20493;-81
2020/12/30 10:11:41;;;;;;;15.03;10.83;;;4.30;99.90;;;;;;5016133;28;20209;-72
2020/12/30 10:14:07;;;;;;;17.27;10.43;;;4.30;99.90;;;;;;5025216;28;20304;-72
2020/12/30 10:16:34;;;;;;;16.27;10.03;;;4.40;99.90;;;;;;5021460;28;20201;-72
2020/12/30 10:19:05;;;;;;;18.87;11.17;;;4.50;99.90;;;;;;5023601;28;20193;-74
2020/12/30 10:21:37;;;;;;;17.03;10.43;;;4.50;99.90;;;;;;5022966;28;20216;-72
2020/12/30 10:24:07;;;;;;;13.83;8.63;;;4.60;99.90;;;;;;5018181;28;20216;-72
2020/12/30 10:26:34;;;;;;;17.87;10.83;;;4.60;99.90;;;;;;5017952;28;20244;-73
2020/12/30 10:29:00;;;;;;;15.60;9.07;;;4.60;99.90;;;;;;5022969;28;20278;-72
2020/12/30 10:31:27;;;;;;;11.87;8.40;;;4.50;99.90;;;;;;5030310;28;20251;-73
2020/12/30 10:33:54;;;;;;;17.20;9.00;;;4.60;99.90;;;;;;5020335;28;20208;-72
2020/12/30 10:36:22;;;;;;;17.00;9.03;;;4.60;99.90;;;;;;5018188;28;20290;-73
2020/12/30 10:38:48;;;;;;;11.70;7.77;;;4.80;99.90;;;;;;5018354;28;20217;-73
2020/12/30 10:41:16;;;;;;;14.90;8.97;;;4.80;99.90;;;;;;5019533;28;21144;-72
2020/12/30 10:43:43;;;;;;;14.47;8.67;;;4.80;99.90;;;;;;5012475;28;20790;-73
2020/12/30 10:46:15;;;;;;;12.90;8.33;;;4.80;99.90;;;;;;5017928;28;20256;-73
2020/12/30 10:48:44;;;;;;;13.70;8.00;;;4.80;99.90;;;;;;5012562;28;21180;-78
2020/12/30 10:51:14;;;;;;;16.63;8.33;;;4.80;99.90;;;;;;5027751;28;20539;-74
2020/12/30 10:53:41;;;;;;;13.77;7.50;;;4.70;99.90;;;;;;5018047;28;20204;-74
2020/12/30 10:56:08;;;;;;;14.03;8.67;;;4.70;99.90;;;;;;5018296;28;20252;-75
2020/12/30 10:58:35;;;;;;;13.87;8.67;;;4.70;99.90;;;;;;5020950;28;20222;-74
2020/12/30 11:01:10;;;;;;;15.67;9.47;;;4.70;99.90;;;;;;5020363;28;20196;-74
2020/12/30 11:03:37;;;;;;;14.10;8.13;;;4.70;99.90;;;;;;5025623;28;20239;-73
2020/12/30 11:06:04;;;;;;;16.17;8.57;;;4.80;99.90;;;;;;5023993;28;20206;-73
2020/12/30 11:08:31;;;;;;;15.67;8.77;;;4.90;99.90;;;;;;5019390;28;20228;-73
2020/12/30 11:10:58;;;;;;;17.23;9.27;;;4.90;99.90;;;;;;5023676;28;20280;-74
2020/12/30 11:13:25;;;;;;;17.60;8.80;;;4.90;99.90;;;;;;5027509;28;20327;-76
2020/12/30 11:15:53;;;;;;;19.50;9.97;;;5.00;99.90;;;;;;5022062;28;20208;-75
2020/12/30 11:18:20;;;;;;;17.13;10.47;;;5.20;99.90;;;;;;5019714;28;20561;-73
2020/12/30 11:20:47;;;;;;;18.77;11.50;;;5.30;99.90;;;;;;5018381;28;20218;-73
2020/12/30 11:23:14;;;;;;;15.03;11.10;;;5.40;99.90;;;;;;5024691;28;20208;-75
2020/12/30 11:26:43;;;;;;;17.37;10.63;;;5.30;99.90;;;;;;5025251;28;20237;-74
2020/12/30 11:28:47;;;;;;;15.23;9.57;;;5.30;99.90;;;;;;5016374;28;20239;-76
2020/12/30 11:31:13;;;;;;;17.93;10.40;;;5.40;99.90;;;;;;5016886;28;20311;-72
2020/12/30 11:33:43;;;;;;;21.43;13.03;;;5.50;99.90;;;;;;5009780;28;20598;-73
2020/12/30 11:36:09;;;;;;;23.67;12.13;;;5.60;99.90;;;;;;5021070;28;20263;-72
2020/12/30 11:38:35;;;;;;;23.33;12.43;;;5.70;99.90;;;;;;5008075;28;20214;-75
2020/12/30 11:41:02;;;;;;;21.17;11.47;;;5.70;99.90;;;;;;5027543;28;20205;-74
2020/12/30 11:43:29;;;;;;;19.17;11.03;;;5.60;99.90;;;;;;5017590;28;20263;-76
2020/12/30 11:46:25;;;;;;;15.27;10.70;;;5.60;99.90;;;;;;5025789;28;20653;-74
2020/12/30 11:48:53;;;;;;;17.07;10.73;;;5.70;99.90;;;;;;5016653;28;20694;-74
2020/12/30 11:51:20;;;;;;;18.00;11.83;;;5.70;99.90;;;;;;5022266;28;20269;-74
2020/12/30 11:53:46;;;;;;;16.07;10.07;;;5.80;99.90;;;;;;5023566;28;20194;-73
2020/12/30 11:56:21;;;;;;;23.43;10.83;;;5.90;99.90;;;;;;5010419;28;20629;-74
2020/12/30 11:58:47;;;;;;;23.20;10.00;;;5.90;99.90;;;;;;5019676;28;20234;-74
2020/12/30 12:01:14;;;;;;;15.53;9.80;;;6.00;99.90;;;;;;5025135;28;20253;-75
2020/12/30 12:03:40;;;;;;;15.17;9.07;;;6.10;99.90;;;;;;5006383;28;20620;-74
2020/12/30 12:06:07;;;;;;;13.40;8.93;;;6.20;99.90;;;;;;5021491;28;20230;-73
2020/12/30 12:08:33;;;;;;;17.13;9.10;;;6.30;99.90;;;;;;5018086;28;20267;-73
2020/12/30 12:10:59;;;;;;;16.60;9.10;;;6.40;99.90;;;;;;5021842;28;20660;-73
2020/12/30 12:13:26;;;;;;;14.97;7.83;;;6.30;99.90;;;;;;5006856;28;20279;-73
2020/12/30 12:15:52;;;;;;;11.27;7.37;;;6.40;99.90;;;;;;5007123;28;20254;-74
2020/12/30 12:18:18;;;;;;;14.37;8.53;;;6.40;99.90;;;;;;5009652;28;20508;-74
2020/12/30 12:20:44;;;;;;;13.03;7.67;;;6.70;99.90;;;;;;5025089;28;20336;-73
2020/12/30 12:23:11;;;;;;;12.73;8.07;;;6.70;99.90;;;;;;5016991;28;20258;-74
2020/12/30 12:25:40;;;;;;;10.87;6.57;;;6.60;99.90;;;;;;5014175;28;20281;-73
2020/12/30 12:28:07;;;;;;;9.80;6.27;;;6.50;99.90;;;;;;5031427;28;20214;-73
2020/12/30 12:30:33;;;;;;;7.60;5.33;;;6.60;99.90;;;;;;5024488;28;20295;-73
2020/12/30 12:32:59;;;;;;;7.87;5.40;;;6.50;99.90;;;;;;5026388;28;20210;-75
2020/12/30 12:35:26;;;;;;;9.63;5.13;;;6.60;99.90;;;;;;5009590;28;20332;-75
2020/12/30 12:38:08;;;;;;;9.17;5.37;;;6.70;99.90;;;;;;5013739;28;20204;-74
2020/12/30 12:40:35;;;;;;;8.87;5.00;;;6.70;99.90;;;;;;5021219;28;20276;-75
2020/12/30 12:43:02;;;;;;;7.90;4.77;;;6.80;99.90;;;;;;5016112;28;20205;-74
2020/12/30 12:45:35;;;;;;;8.27;4.70;;;6.80;99.90;;;;;;5023902;28;20233;-74
2020/12/30 12:48:02;;;;;;;6.13;4.37;;;6.70;99.90;;;;;;5020128;28;20225;-74
2020/12/30 12:50:28;;;;;;;7.37;4.43;;;6.70;99.90;;;;;;5037206;28;20287;-75